Time;durP1;ratioP1;P1;durP2;ratioP2;P2;SDS_P1;SDS_P2;PMS_P1;PMS_P2;Temp;Humidity;BMP_temperature;BMP_pressure;BME280_temperature;BME280_humidity;BME280_pressure;Samples;Min_cycle;Max_cycle;Signal;HPM_P1;HPM_P2
2023/03/21 00:00:00;;;;;;;1.0;1.0;;;;;;;10.2;100.0;101460;;;;
2023/03/21 00:01:03;;;;;;;1.0;1.0;;;;;;;10.3;100.0;101450;;;;
2023/03/21 00:02:00;;;;;;;1.0;1.0;;;;;;;10.3;100.0;101450;;;;
2023/03/21 00:03:00;;;;;;;1.0;1.0;;;;;;;10.3;100.0;101450;;;;
2023/03/21 00:04:00;;;;;;;1.0;1.0;;;;;;;10.3;100.0;101450;;;;
2023/03/21 00:05:10;;;;;;;1.0;1.0;;;;;;;10.3;100.0;101440;;;;
2023/03/21 00:06:05;;;;;;;1.0;1.0;;;;;;;10.3;100.0;101440;;;;
2023/03/21 00:07:00;;;;;;;1.0;1.0;;;;;;;10.2;100.0;101450;;;;
2023/03/21 00:08:02;;;;;;;1.0;1.0;;;;;;;10.2;100.0;101450;;;;
2023/03/21 00:09:00;;;;;;;1.0;1.0;;;;;;;10.3;100.0;101440;;;;
2023/03/21 00:10:10;;;;;;;1.0;1.0;;;;;;;10.3;100.0;101440;;;;
2023/03/21 00:11:01;;;;;;;1.0;1.0;;;;;;;10.3;100.0;101440;;;;
2023/03/21 00:12:00;;;;;;;1.0;1.0;;;;;;;10.3;100.0;101440;;;;
2023/03/21 00:13:00;;;;;;;1.0;1.0;;;;;;;10.3;100.0;101440;;;;
2023/03/21 00:14:01;;;;;;;1.0;1.0;;;;;;;10.3;100.0;101440;;;;
2023/03/21 00:15:04;;;;;;;1.0;1.0;;;;;;;10.3;100.0;101440;;;;
2023/03/21 00:16:17;;;;;;;1.0;1.0;;;;;;;10.3;100.0;101440;;;;
2023/03/21 00:17:00;;;;;;;1.0;1.0;;;;;;;10.3;100.0;101430;;;;
2023/03/21 00:18:02;;;;;;;1.0;1.0;;;;;;;10.3;100.0;101430;;;;
2023/03/21 00:19:02;;;;;;;0.8;0.8;;;;;;;10.2;100.0;101440;;;;
2023/03/21 00:20:03;;;;;;;0.8;0.8;;;;;;;10.2;100.0;101440;;;;
2023/03/21 00:21:14;;;;;;;0.8;0.8;;;;;;;10.3;100.0;101430;;;;
2023/03/21 00:22:08;;;;;;;0.8;0.8;;;;;;;10.3;100.0;101430;;;;
2023/03/21 00:23:00;;;;;;;0.8;0.8;;;;;;;10.1;100.0;101430;;;;
2023/03/21 00:24:00;;;;;;;0.8;0.8;;;;;;;10.1;100.0;101430;;;;
2023/03/21 00:25:00;;;;;;;0.8;0.8;;;;;;;10.2;100.0;101430;;;;
2023/03/21 00:26:00;;;;;;;0.8;0.8;;;;;;;10.2;100.0;101430;;;;
2023/03/21 00:27:10;;;;;;;0.8;0.8;;;;;;;10.2;100.0;101430;;;;
2023/03/21 00:28:08;;;;;;;0.8;0.8;;;;;;;10.2;100.0;101430;;;;
2023/03/21 00:29:00;;;;;;;0.8;0.8;;;;;;;10.2;100.0;101420;;;;
2023/03/21 00:30:00;;;;;;;0.8;0.8;;;;;;;10.2;100.0;101420;;;;
2023/03/21 00:31:00;;;;;;;0.8;0.8;;;;;;;10.2;100.0;101430;;;;
2023/03/21 00:32:00;;;;;;;0.8;0.8;;;;;;;10.2;100.0;101430;;;;
2023/03/21 00:33:11;;;;;;;0.8;0.8;;;;;;;10.2;100.0;101430;;;;
2023/03/21 00:34:00;;;;;;;0.8;0.8;;;;;;;10.2;100.0;101430;;;;
2023/03/21 00:35:10;;;;;;;0.8;0.8;;;;;;;10.2;100.0;101430;;;;
2023/03/21 00:36:06;;;;;;;0.8;0.8;;;;;;;10.2;100.0;101430;;;;
2023/03/21 00:37:00;;;;;;;0.8;0.8;;;;;;;10.2;100.0;101420;;;;
2023/03/21 00:38:01;;;;;;;0.8;0.8;;;;;;;10.2;100.0;101420;;;;
2023/03/21 00:39:00;;;;;;;0.9;0.9;;;;;;;10.1;100.0;101420;;;;
2023/03/21 00:40:00;;;;;;;0.9;0.9;;;;;;;10.1;100.0;101420;;;;
2023/03/21 00:41:14;;;;;;;0.9;0.9;;;;;;;10.1;100.0;101420;;;;
2023/03/21 00:42:00;;;;;;;0.9;0.9;;;;;;;10.1;100.0;101420;;;;
2023/03/21 00:43:00;;;;;;;0.9;0.9;;;;;;;10.1;100.0;101420;;;;
2023/03/21 00:44:00;;;;;;;0.9;0.9;;;;;;;10.1;100.0;101420;;;;
2023/03/21 00:45:00;;;;;;;0.9;0.9;;;;;;;10.1;100.0;101420;;;;
2023/03/21 00:46:00;;;;;;;0.9;0.9;;;;;;;10.1;100.0;101420;;;;
2023/03/21 00:47:07;;;;;;;0.9;0.9;;;;;;;10.1;100.0;101420;;;;
2023/03/21 00:48:00;;;;;;;0.9;0.9;;;;;;;10.1;100.0;101420;;;;
2023/03/21 00:49:00;;;;;;;0.9;0.9;;;;;;;10.1;100.0;101420;;;;
2023/03/21 00:50:00;;;;;;;0.9;0.9;;;;;;;10.1;100.0;101420;;;;
2023/03/21 00:51:00;;;;;;;0.9;0.9;;;;;;;10.1;100.0;101410;;;;
2023/03/21 00:52:10;;;;;;;0.9;0.9;;;;;;;10.1;100.0;101410;;;;
2023/03/21 00:53:00;;;;;;;0.9;0.9;;;;;;;10.1;100.0;101410;;;;
2023/03/21 00:54:00;;;;;;;0.9;0.9;;;;;;;10.1;100.0;101410;;;;
2023/03/21 00:55:00;;;;;;;0.9;0.9;;;;;;;10.1;100.0;101410;;;;
2023/03/21 00:56:00;;;;;;;0.9;0.9;;;;;;;10.1;100.0;101410;;;;
2023/03/21 00:57:01;;;;;;;0.9;0.9;;;;;;;10.2;100.0;101410;;;;
2023/03/21 00:58:02;;;;;;;0.9;0.9;;;;;;;10.2;100.0;101410;;;;
2023/03/21 00:59:00;;;;;;;1.3;1.3;;;;;;;10.2;100.0;101400;;;;
2023/03/21 01:00:00;;;;;;;1.3;1.3;;;;;;;10.2;100.0;101400;;;;
2023/03/21 01:01:01;;;;;;;1.3;1.3;;;;;;;10.2;100.0;101400;;;;
2023/03/21 01:02:00;;;;;;;1.3;1.3;;;;;;;10.2;100.0;101400;;;;
2023/03/21 01:03:10;;;;;;;1.3;1.3;;;;;;;10.2;100.0;101400;;;;
2023/03/21 01:04:04;;;;;;;1.3;1.3;;;;;;;10.2;100.0;101400;;;;
2023/03/21 01:05:00;;;;;;;1.3;1.3;;;;;;;10.1;100.0;101390;;;;
2023/03/21 01:06:04;;;;;;;1.3;1.3;;;;;;;10.1;100.0;101390;;;;
2023/03/21 01:07:00;;;;;;;1.3;1.3;;;;;;;10.1;100.0;101390;;;;
2023/03/21 01:08:01;;;;;;;1.3;1.3;;;;;;;10.1;100.0;101390;;;;
2023/03/21 01:09:00;;;;;;;1.3;1.3;;;;;;;10.1;100.0;101390;;;;
2023/03/21 01:10:00;;;;;;;1.3;1.3;;;;;;;10.1;100.0;101390;;;;
2023/03/21 01:11:03;;;;;;;1.3;1.3;;;;;;;10.1;100.0;101390;;;;
2023/03/21 01:12:00;;;;;;;1.3;1.3;;;;;;;10.1;100.0;101390;;;;
2023/03/21 01:13:00;;;;;;;1.3;1.3;;;;;;;10.1;100.0;101390;;;;
2023/03/21 01:14:10;;;;;;;1.3;1.3;;;;;;;10.1;100.0;101390;;;;
2023/03/21 01:15:00;;;;;;;1.3;1.3;;;;;;;10.2;100.0;101390;;;;
2023/03/21 01:16:02;;;;;;;1.3;1.3;;;;;;;10.2;100.0;101390;;;;
2023/03/21 01:17:00;;;;;;;1.3;1.3;;;;;;;10.1;100.0;101390;;;;
2023/03/21 01:18:00;;;;;;;1.3;1.3;;;;;;;10.1;100.0;101390;;;;
2023/03/21 01:19:04;;;;;;;0.9;0.9;;;;;;;10.1;100.0;101380;;;;
2023/03/21 01:20:00;;;;;;;0.9;0.9;;;;;;;10.1;100.0;101380;;;;
2023/03/21 01:21:00;;;;;;;0.9;0.9;;;;;;;10.2;100.0;101380;;;;
2023/03/21 01:22:00;;;;;;;0.9;0.9;;;;;;;10.2;100.0;101380;;;;
2023/03/21 01:23:00;;;;;;;0.9;0.9;;;;;;;10.0;100.0;101380;;;;
2023/03/21 01:24:00;;;;;;;0.9;0.9;;;;;;;10.0;100.0;101380;;;;
2023/03/21 01:25:10;;;;;;;0.9;0.9;;;;;;;10.1;100.0;101370;;;;
2023/03/21 01:26:00;;;;;;;0.9;0.9;;;;;;;10.1;100.0;101370;;;;
2023/03/21 01:27:01;;;;;;;0.9;0.9;;;;;;;10.1;100.0;101370;;;;
2023/03/21 01:28:00;;;;;;;0.9;0.9;;;;;;;10.1;100.0;101370;;;;
2023/03/21 01:29:00;;;;;;;0.9;0.9;;;;;;;10.1;100.0;101370;;;;
2023/03/21 01:30:00;;;;;;;0.9;0.9;;;;;;;10.1;100.0;101370;;;;
2023/03/21 01:31:01;;;;;;;0.9;0.9;;;;;;;10.1;100.0;101370;;;;
2023/03/21 01:32:00;;;;;;;0.9;0.9;;;;;;;10.1;100.0;101370;;;;
2023/03/21 01:33:00;;;;;;;0.9;0.9;;;;;;;10.1;100.0;101360;;;;
2023/03/21 01:34:00;;;;;;;0.9;0.9;;;;;;;10.1;100.0;101360;;;;
2023/03/21 01:35:00;;;;;;;0.9;0.9;;;;;;;10.1;100.0;101360;;;;
2023/03/21 01:36:10;;;;;;;0.9;0.9;;;;;;;10.1;100.0;101360;;;;
2023/03/21 01:37:00;;;;;;;0.9;0.9;;;;;;;10.1;100.0;101360;;;;
2023/03/21 01:38:00;;;;;;;0.9;0.9;;;;;;;10.1;100.0;101360;;;;
2023/03/21 01:39:00;;;;;;;0.9;0.9;;;;;;;10.1;100.0;101360;;;;
2023/03/21 01:40:00;;;;;;;0.9;0.9;;;;;;;10.1;100.0;101360;;;;
2023/03/21 01:41:01;;;;;;;0.9;0.9;;;;;;;10.1;100.0;101360;;;;
2023/03/21 01:42:00;;;;;;;0.9;0.9;;;;;;;10.1;100.0;101360;;;;
2023/03/21 01:43:00;;;;;;;0.9;0.9;;;;;;;10.1;100.0;101350;;;;
2023/03/21 01:44:00;;;;;;;0.9;0.9;;;;;;;10.1;100.0;101350;;;;
2023/03/21 01:45:02;;;;;;;0.9;0.9;;;;;;;10.1;100.0;101350;;;;
2023/03/21 01:46:01;;;;;;;0.9;0.9;;;;;;;10.1;100.0;101350;;;;
2023/03/21 01:47:10;;;;;;;0.9;0.9;;;;;;;10.0;100.0;101340;;;;
2023/03/21 01:48:00;;;;;;;0.9;0.9;;;;;;;10.0;100.0;101340;;;;
2023/03/21 01:49:04;;;;;;;0.9;0.9;;;;;;;10.1;100.0;101340;;;;
2023/03/21 01:50:01;;;;;;;0.9;0.9;;;;;;;10.1;100.0;101340;;;;
2023/03/21 01:51:00;;;;;;;0.9;0.9;;;;;;;10.1;100.0;101340;;;;
2023/03/21 01:52:13;;;;;;;0.9;0.9;;;;;;;10.1;100.0;101340;;;;
2023/03/21 01:53:01;;;;;;;0.9;0.9;;;;;;;10.1;100.0;101340;;;;
2023/03/21 01:54:00;;;;;;;0.9;0.9;;;;;;;10.1;100.0;101340;;;;
2023/03/21 01:55:01;;;;;;;0.9;0.9;;;;;;;10.2;100.0;101340;;;;
2023/03/21 01:56:02;;;;;;;0.9;0.9;;;;;;;10.2;100.0;101340;;;;
2023/03/21 01:57:03;;;;;;;0.9;0.9;;;;;;;10.1;100.0;101330;;;;
2023/03/21 01:58:06;;;;;;;1.1;1.1;;;;;;;10.1;100.0;101330;;;;
2023/03/21 01:59:03;;;;;;;1.1;1.1;;;;;;;10.1;100.0;101330;;;;
2023/03/21 02:00:11;;;;;;;1.1;1.1;;;;;;;10.1;100.0;101330;;;;
2023/03/21 02:01:01;;;;;;;1.1;1.1;;;;;;;10.1;100.0;101330;;;;
2023/03/21 02:02:06;;;;;;;1.1;1.1;;;;;;;10.1;100.0;101330;;;;
2023/03/21 02:03:15;;;;;;;1.1;1.1;;;;;;;10.1;100.0;101330;;;;
2023/03/21 02:04:02;;;;;;;1.1;1.1;;;;;;;10.1;100.0;101330;;;;
2023/03/21 02:05:02;;;;;;;1.1;1.1;;;;;;;10.1;100.0;101320;;;;
2023/03/21 02:06:03;;;;;;;1.1;1.1;;;;;;;10.1;100.0;101320;;;;
2023/03/21 02:07:08;;;;;;;1.1;1.1;;;;;;;10.1;100.0;101320;;;;
2023/03/21 02:08:00;;;;;;;1.1;1.1;;;;;;;10.1;100.0;101320;;;;
2023/03/21 02:09:03;;;;;;;1.1;1.1;;;;;;;10.2;100.0;101320;;;;
2023/03/21 02:10:02;;;;;;;1.1;1.1;;;;;;;10.2;100.0;101320;;;;
2023/03/21 02:11:00;;;;;;;1.1;1.1;;;;;;;10.1;100.0;101320;;;;
2023/03/21 02:12:00;;;;;;;1.1;1.1;;;;;;;10.1;100.0;101320;;;;
2023/03/21 02:13:08;;;;;;;1.1;1.1;;;;;;;10.2;100.0;101320;;;;
2023/03/21 02:14:08;;;;;;;1.1;1.1;;;;;;;10.2;100.0;101320;;;;
2023/03/21 02:15:00;;;;;;;1.1;1.1;;;;;;;10.2;100.0;101310;;;;
2023/03/21 02:16:05;;;;;;;1.1;1.1;;;;;;;10.2;100.0;101310;;;;
2023/03/21 02:17:00;;;;;;;1.1;1.1;;;;;;;10.2;100.0;101310;;;;
2023/03/21 02:18:07;;;;;;;0.8;0.8;;;;;;;10.2;100.0;101310;;;;
2023/03/21 02:19:11;;;;;;;0.8;0.8;;;;;;;10.2;100.0;101310;;;;
2023/03/21 02:20:10;;;;;;;0.8;0.8;;;;;;;10.2;100.0;101310;;;;
2023/03/21 02:21:00;;;;;;;0.8;0.8;;;;;;;10.2;100.0;101310;;;;
2023/03/21 02:22:10;;;;;;;0.8;0.8;;;;;;;10.2;100.0;101310;;;;
2023/03/21 02:23:10;;;;;;;0.8;0.8;;;;;;;10.2;100.0;101310;;;;
2023/03/21 02:24:03;;;;;;;0.8;0.8;;;;;;;10.2;100.0;101310;;;;
2023/03/21 02:25:20;;;;;;;0.8;0.8;;;;;;;10.1;100.0;101300;;;;
2023/03/21 02:26:10;;;;;;;0.8;0.8;;;;;;;10.1;100.0;101300;;;;
2023/03/21 02:27:07;;;;;;;0.8;0.8;;;;;;;10.1;100.0;101300;;;;
2023/03/21 02:28:01;;;;;;;0.8;0.8;;;;;;;10.1;100.0;101300;;;;
2023/03/21 02:29:00;;;;;;;0.8;0.8;;;;;;;10.2;100.0;101300;;;;
2023/03/21 02:30:17;;;;;;;0.8;0.8;;;;;;;10.2;100.0;101300;;;;
2023/03/21 02:31:09;;;;;;;0.8;0.8;;;;;;;10.2;100.0;101290;;;;
2023/03/21 02:32:13;;;;;;;0.8;0.8;;;;;;;10.2;100.0;101290;;;;
2023/03/21 02:33:07;;;;;;;0.8;0.8;;;;;;;10.1;100.0;101300;;;;
2023/03/21 02:34:10;;;;;;;0.8;0.8;;;;;;;10.1;100.0;101300;;;;
2023/03/21 02:35:00;;;;;;;0.8;0.8;;;;;;;10.1;100.0;101290;;;;
2023/03/21 02:36:10;;;;;;;0.8;0.8;;;;;;;10.1;100.0;101290;;;;
2023/03/21 02:37:10;;;;;;;0.8;0.8;;;;;;;10.1;100.0;101290;;;;
2023/03/21 02:38:01;;;;;;;1.4;1.4;;;;;;;10.1;100.0;101290;;;;
2023/03/21 02:39:11;;;;;;;1.4;1.4;;;;;;;10.2;100.0;101290;;;;
2023/03/21 02:40:10;;;;;;;1.4;1.4;;;;;;;10.2;100.0;101290;;;;
2023/03/21 02:41:13;;;;;;;1.4;1.4;;;;;;;10.2;100.0;101290;;;;
2023/03/21 02:42:04;;;;;;;1.4;1.4;;;;;;;10.2;100.0;101290;;;;
2023/03/21 02:43:09;;;;;;;1.4;1.4;;;;;;;10.1;100.0;101290;;;;
2023/03/21 02:44:06;;;;;;;1.4;1.4;;;;;;;10.1;100.0;101290;;;;
2023/03/21 02:45:04;;;;;;;1.4;1.4;;;;;;;10.1;100.0;101280;;;;
2023/03/21 02:46:04;;;;;;;1.4;1.4;;;;;;;10.1;100.0;101280;;;;
2023/03/21 02:47:06;;;;;;;1.4;1.4;;;;;;;10.3;100.0;101280;;;;
2023/03/21 02:48:06;;;;;;;1.4;1.4;;;;;;;10.3;100.0;101280;;;;
2023/03/21 02:49:09;;;;;;;1.4;1.4;;;;;;;10.3;100.0;101280;;;;
2023/03/21 02:50:08;;;;;;;1.4;1.4;;;;;;;10.3;100.0;101280;;;;
2023/03/21 02:51:01;;;;;;;1.4;1.4;;;;;;;10.2;100.0;101280;;;;
2023/03/21 02:52:11;;;;;;;1.4;1.4;;;;;;;10.2;100.0;101280;;;;
2023/03/21 02:53:02;;;;;;;1.4;1.4;;;;;;;10.1;100.0;101280;;;;
2023/03/21 02:54:12;;;;;;;1.4;1.4;;;;;;;10.1;100.0;101280;;;;
2023/03/21 02:55:03;;;;;;;1.4;1.4;;;;;;;10.1;100.0;101280;;;;
2023/03/21 02:56:01;;;;;;;1.4;1.4;;;;;;;10.1;100.0;101280;;;;
2023/03/21 02:57:03;;;;;;;1.4;1.4;;;;;;;10.1;100.0;101280;;;;
2023/03/21 02:58:11;;;;;;;0.8;0.8;;;;;;;10.1;100.0;101280;;;;
2023/03/21 02:59:02;;;;;;;0.8;0.8;;;;;;;10.1;100.0;101280;;;;
2023/03/21 03:00:11;;;;;;;0.8;0.8;;;;;;;10.1;100.0;101280;;;;
2023/03/21 03:01:00;;;;;;;0.8;0.8;;;;;;;10.1;100.0;101280;;;;
2023/03/21 03:02:01;;;;;;;0.8;0.8;;;;;;;10.1;100.0;101280;;;;
2023/03/21 03:03:11;;;;;;;0.8;0.8;;;;;;;10.1;100.0;101280;;;;
2023/03/21 03:04:00;;;;;;;0.8;0.8;;;;;;;10.1;100.0;101280;;;;
2023/03/21 03:05:00;;;;;;;0.8;0.8;;;;;;;10.1;100.0;101280;;;;
2023/03/21 03:06:01;;;;;;;0.8;0.8;;;;;;;10.1;100.0;101280;;;;
2023/03/21 03:07:10;;;;;;;0.8;0.8;;;;;;;10.1;100.0;101280;;;;
2023/03/21 03:08:10;;;;;;;0.8;0.8;;;;;;;10.1;100.0;101280;;;;
2023/03/21 03:09:03;;;;;;;0.8;0.8;;;;;;;10.1;100.0;101280;;;;
2023/03/21 03:10:08;;;;;;;0.8;0.8;;;;;;;10.1;100.0;101280;;;;
2023/03/21 03:11:10;;;;;;;0.8;0.8;;;;;;;10.1;100.0;101270;;;;
2023/03/21 03:12:07;;;;;;;0.8;0.8;;;;;;;10.1;100.0;101270;;;;
2023/03/21 03:13:08;;;;;;;0.8;0.8;;;;;;;10.0;100.0;101270;;;;
2023/03/21 03:14:11;;;;;;;0.8;0.8;;;;;;;10.0;100.0;101270;;;;
2023/03/21 03:15:09;;;;;;;0.8;0.8;;;;;;;10.1;100.0;101270;;;;
2023/03/21 03:16:01;;;;;;;0.8;0.8;;;;;;;10.1;100.0;101270;;;;
2023/03/21 03:17:10;;;;;;;0.8;0.8;;;;;;;10.0;100.0;101270;;;;
2023/03/21 03:18:00;;;;;;;0.8;0.8;;;;;;;10.0;100.0;101270;;;;
2023/03/21 03:19:00;;;;;;;0.8;0.8;;;;;;;10.0;100.0;101270;;;;
2023/03/21 03:20:16;;;;;;;0.8;0.8;;;;;;;10.0;100.0;101270;;;;
2023/03/21 03:21:00;;;;;;;0.8;0.8;;;;;;;10.1;100.0;101270;;;;
2023/03/21 03:22:06;;;;;;;0.8;0.8;;;;;;;10.1;100.0;101270;;;;
2023/03/21 03:23:03;;;;;;;0.8;0.8;;;;;;;10.0;100.0;101270;;;;
2023/03/21 03:24:07;;;;;;;0.8;0.8;;;;;;;10.0;100.0;101270;;;;
2023/03/21 03:25:14;;;;;;;0.8;0.8;;;;;;;10.1;100.0;101270;;;;
2023/03/21 03:26:04;;;;;;;0.8;0.8;;;;;;;10.1;100.0;101270;;;;
2023/03/21 03:27:00;;;;;;;0.8;0.8;;;;;;;9.9;100.0;101270;;;;
2023/03/21 03:28:01;;;;;;;0.8;0.8;;;;;;;9.9;100.0;101270;;;;
2023/03/21 03:29:06;;;;;;;0.8;0.8;;;;;;;10.0;100.0;101260;;;;
2023/03/21 03:30:00;;;;;;;0.8;0.8;;;;;;;10.0;100.0;101260;;;;
2023/03/21 03:31:11;;;;;;;0.8;0.8;;;;;;;10.0;100.0;101260;;;;
2023/03/21 03:32:02;;;;;;;0.8;0.8;;;;;;;10.0;100.0;101260;;;;
2023/03/21 03:33:02;;;;;;;0.8;0.8;;;;;;;10.0;100.0;101260;;;;
2023/03/21 03:34:05;;;;;;;0.8;0.8;;;;;;;10.0;100.0;101260;;;;
2023/03/21 03:35:03;;;;;;;0.8;0.8;;;;;;;10.0;100.0;101260;;;;
2023/03/21 03:36:06;;;;;;;0.8;0.8;;;;;;;10.0;100.0;101260;;;;
2023/03/21 03:37:03;;;;;;;0.8;0.8;;;;;;;10.1;100.0;101260;;;;
2023/03/21 03:38:02;;;;;;;0.8;0.8;;;;;;;10.1;100.0;101260;;;;
2023/03/21 03:39:03;;;;;;;0.8;0.8;;;;;;;10.1;100.0;101250;;;;
2023/03/21 03:40:02;;;;;;;0.8;0.8;;;;;;;10.1;100.0;101250;;;;
2023/03/21 03:41:05;;;;;;;0.8;0.8;;;;;;;10.0;100.0;101250;;;;
2023/03/21 03:42:14;;;;;;;0.8;0.8;;;;;;;10.0;100.0;101250;;;;
2023/03/21 03:43:04;;;;;;;0.8;0.8;;;;;;;9.9;100.0;101260;;;;
2023/03/21 03:44:00;;;;;;;0.8;0.8;;;;;;;9.9;100.0;101260;;;;
2023/03/21 03:45:01;;;;;;;0.8;0.8;;;;;;;9.9;100.0;101250;;;;
2023/03/21 03:46:04;;;;;;;0.8;0.8;;;;;;;9.9;100.0;101250;;;;
2023/03/21 03:47:04;;;;;;;0.8;0.8;;;;;;;9.9;100.0;101250;;;;
2023/03/21 03:48:05;;;;;;;0.8;0.8;;;;;;;9.9;100.0;101250;;;;
2023/03/21 03:49:04;;;;;;;0.8;0.8;;;;;;;9.9;100.0;101250;;;;
2023/03/21 03:50:07;;;;;;;0.8;0.8;;;;;;;9.9;100.0;101250;;;;
2023/03/21 03:51:02;;;;;;;0.8;0.8;;;;;;;9.9;100.0;101240;;;;
2023/03/21 03:52:00;;;;;;;0.8;0.8;;;;;;;9.9;100.0;101240;;;;
2023/03/21 03:53:16;;;;;;;0.8;0.8;;;;;;;9.9;100.0;101250;;;;
2023/03/21 03:54:05;;;;;;;0.8;0.8;;;;;;;9.9;100.0;101250;;;;
2023/03/21 03:55:00;;;;;;;0.8;0.8;;;;;;;9.9;100.0;101250;;;;
2023/03/21 03:56:01;;;;;;;0.8;0.8;;;;;;;9.9;100.0;101250;;;;
2023/03/21 03:57:00;;;;;;;0.8;0.8;;;;;;;9.9;100.0;101250;;;;
2023/03/21 03:58:02;;;;;;;0.9;0.9;;;;;;;9.9;100.0;101250;;;;
2023/03/21 03:59:03;;;;;;;0.9;0.9;;;;;;;10.0;100.0;101240;;;;
2023/03/21 04:00:00;;;;;;;0.9;0.9;;;;;;;10.0;100.0;101240;;;;
2023/03/21 04:01:00;;;;;;;0.9;0.9;;;;;;;9.9;100.0;101240;;;;
2023/03/21 04:02:00;;;;;;;0.9;0.9;;;;;;;9.9;100.0;101240;;;;
2023/03/21 04:03:00;;;;;;;0.9;0.9;;;;;;;10.0;100.0;101240;;;;
2023/03/21 04:04:10;;;;;;;0.9;0.9;;;;;;;10.0;100.0;101240;;;;
2023/03/21 04:05:00;;;;;;;0.9;0.9;;;;;;;9.9;100.0;101240;;;;
2023/03/21 04:06:00;;;;;;;0.9;0.9;;;;;;;9.9;100.0;101240;;;;
2023/03/21 04:07:02;;;;;;;0.9;0.9;;;;;;;9.9;100.0;101240;;;;
2023/03/21 04:08:01;;;;;;;0.9;0.9;;;;;;;9.9;100.0;101240;;;;
2023/03/21 04:09:07;;;;;;;0.9;0.9;;;;;;;9.9;100.0;101240;;;;
2023/03/21 04:10:00;;;;;;;0.9;0.9;;;;;;;9.9;100.0;101240;;;;
2023/03/21 04:11:01;;;;;;;0.9;0.9;;;;;;;9.9;100.0;101240;;;;
2023/03/21 04:12:00;;;;;;;0.9;0.9;;;;;;;9.9;100.0;101240;;;;
2023/03/21 04:13:00;;;;;;;0.9;0.9;;;;;;;10.0;100.0;101230;;;;
2023/03/21 04:14:00;;;;;;;0.9;0.9;;;;;;;10.0;100.0;101230;;;;
2023/03/21 04:15:10;;;;;;;0.9;0.9;;;;;;;9.9;100.0;101230;;;;
2023/03/21 04:16:00;;;;;;;0.9;0.9;;;;;;;9.9;100.0;101230;;;;
2023/03/21 04:17:00;;;;;;;0.9;0.9;;;;;;;9.9;100.0;101230;;;;
2023/03/21 04:18:00;;;;;;;0.8;0.8;;;;;;;9.9;100.0;101230;;;;
2023/03/21 04:19:01;;;;;;;0.8;0.8;;;;;;;9.8;100.0;101230;;;;
2023/03/21 04:20:10;;;;;;;0.8;0.8;;;;;;;9.8;100.0;101230;;;;
2023/03/21 04:21:00;;;;;;;0.8;0.8;;;;;;;9.8;100.0;101230;;;;
2023/03/21 04:22:00;;;;;;;0.8;0.8;;;;;;;9.8;100.0;101230;;;;
2023/03/21 04:23:00;;;;;;;0.8;0.8;;;;;;;9.9;100.0;101230;;;;
2023/03/21 04:24:00;;;;;;;0.8;0.8;;;;;;;9.9;100.0;101230;;;;
2023/03/21 04:25:00;;;;;;;0.8;0.8;;;;;;;9.9;100.0;101230;;;;
2023/03/21 04:26:00;;;;;;;0.8;0.8;;;;;;;9.9;100.0;101230;;;;
2023/03/21 04:27:00;;;;;;;0.8;0.8;;;;;;;9.9;100.0;101230;;;;
2023/03/21 04:28:00;;;;;;;0.8;0.8;;;;;;;9.9;100.0;101230;;;;
2023/03/21 04:29:01;;;;;;;0.8;0.8;;;;;;;9.8;100.0;101220;;;;
2023/03/21 04:30:00;;;;;;;0.8;0.8;;;;;;;9.8;100.0;101220;;;;
2023/03/21 04:31:08;;;;;;;0.8;0.8;;;;;;;9.8;100.0;101220;;;;
2023/03/21 04:32:00;;;;;;;0.8;0.8;;;;;;;9.8;100.0;101220;;;;
2023/03/21 04:33:00;;;;;;;0.8;0.8;;;;;;;9.8;100.0;101220;;;;
2023/03/21 04:34:02;;;;;;;0.8;0.8;;;;;;;9.8;100.0;101220;;;;
2023/03/21 04:35:01;;;;;;;0.8;0.8;;;;;;;9.9;100.0;101220;;;;
2023/03/21 04:36:00;;;;;;;0.8;0.8;;;;;;;9.9;100.0;101220;;;;
2023/03/21 04:37:00;;;;;;;0.8;0.8;;;;;;;9.8;100.0;101220;;;;
2023/03/21 04:38:00;;;;;;;1.5;1.5;;;;;;;9.8;100.0;101220;;;;
2023/03/21 04:39:00;;;;;;;1.5;1.5;;;;;;;9.8;100.0;101220;;;;
2023/03/21 04:40:05;;;;;;;1.5;1.5;;;;;;;9.8;100.0;101220;;;;
2023/03/21 04:41:01;;;;;;;1.5;1.5;;;;;;;9.9;100.0;101220;;;;
2023/03/21 04:42:00;;;;;;;1.5;1.5;;;;;;;9.9;100.0;101220;;;;
2023/03/21 04:43:00;;;;;;;1.5;1.5;;;;;;;9.9;100.0;101210;;;;
2023/03/21 04:44:00;;;;;;;1.5;1.5;;;;;;;9.9;100.0;101210;;;;
2023/03/21 04:45:00;;;;;;;1.5;1.5;;;;;;;9.9;100.0;101220;;;;
2023/03/21 04:46:00;;;;;;;1.5;1.5;;;;;;;9.9;100.0;101220;;;;
2023/03/21 04:47:00;;;;;;;1.5;1.5;;;;;;;9.8;100.0;101220;;;;
2023/03/21 04:48:00;;;;;;;1.5;1.5;;;;;;;9.8;100.0;101220;;;;
2023/03/21 04:49:00;;;;;;;1.5;1.5;;;;;;;9.8;100.0;101210;;;;
2023/03/21 04:50:00;;;;;;;1.5;1.5;;;;;;;9.8;100.0;101210;;;;
2023/03/21 04:51:00;;;;;;;1.5;1.5;;;;;;;9.9;100.0;101210;;;;
2023/03/21 04:52:00;;;;;;;1.5;1.5;;;;;;;9.9;100.0;101210;;;;
2023/03/21 04:53:00;;;;;;;1.5;1.5;;;;;;;9.8;100.0;101210;;;;
2023/03/21 04:54:00;;;;;;;1.5;1.5;;;;;;;9.8;100.0;101210;;;;
2023/03/21 04:55:00;;;;;;;1.5;1.5;;;;;;;9.8;100.0;101210;;;;
2023/03/21 04:56:00;;;;;;;1.5;1.5;;;;;;;9.8;100.0;101210;;;;
2023/03/21 04:57:00;;;;;;;1.5;1.5;;;;;;;9.7;100.0;101200;;;;
2023/03/21 04:58:00;;;;;;;1.1;1.1;;;;;;;9.7;100.0;101200;;;;
2023/03/21 04:59:02;;;;;;;1.1;1.1;;;;;;;9.8;100.0;101200;;;;
2023/03/21 05:00:00;;;;;;;1.1;1.1;;;;;;;9.8;100.0;101200;;;;
2023/03/21 05:01:01;;;;;;;1.1;1.1;;;;;;;9.6;100.0;101200;;;;
2023/03/21 05:02:00;;;;;;;1.1;1.1;;;;;;;9.6;100.0;101200;;;;
2023/03/21 05:03:00;;;;;;;1.1;1.1;;;;;;;9.7;100.0;101200;;;;
2023/03/21 05:04:01;;;;;;;1.1;1.1;;;;;;;9.7;100.0;101200;;;;
2023/03/21 05:05:00;;;;;;;1.1;1.1;;;;;;;9.6;100.0;101200;;;;
2023/03/21 05:06:00;;;;;;;1.1;1.1;;;;;;;9.6;100.0;101200;;;;
2023/03/21 05:07:00;;;;;;;1.1;1.1;;;;;;;9.7;100.0;101200;;;;
2023/03/21 05:08:00;;;;;;;1.1;1.1;;;;;;;9.7;100.0;101200;;;;
2023/03/21 05:09:00;;;;;;;1.1;1.1;;;;;;;9.6;100.0;101200;;;;
2023/03/21 05:10:02;;;;;;;1.1;1.1;;;;;;;9.6;100.0;101200;;;;
2023/03/21 05:11:00;;;;;;;1.1;1.1;;;;;;;9.7;100.0;101190;;;;
2023/03/21 05:12:00;;;;;;;1.1;1.1;;;;;;;9.7;100.0;101190;;;;
2023/03/21 05:13:00;;;;;;;1.1;1.1;;;;;;;9.8;100.0;101190;;;;
2023/03/21 05:14:00;;;;;;;1.1;1.1;;;;;;;9.8;100.0;101190;;;;
2023/03/21 05:15:00;;;;;;;1.1;1.1;;;;;;;9.7;100.0;101200;;;;
2023/03/21 05:16:00;;;;;;;1.1;1.1;;;;;;;9.7;100.0;101200;;;;
2023/03/21 05:17:04;;;;;;;1.1;1.1;;;;;;;9.7;100.0;101190;;;;
2023/03/21 05:18:10;;;;;;;1.7;1.6;;;;;;;9.7;100.0;101190;;;;
2023/03/21 05:19:03;;;;;;;1.7;1.6;;;;;;;9.8;100.0;101190;;;;
2023/03/21 05:20:00;;;;;;;1.7;1.6;;;;;;;9.8;100.0;101190;;;;
2023/03/21 05:21:00;;;;;;;1.7;1.6;;;;;;;9.6;100.0;101200;;;;
2023/03/21 05:22:03;;;;;;;1.7;1.6;;;;;;;9.6;100.0;101200;;;;
2023/03/21 05:23:00;;;;;;;1.7;1.6;;;;;;;9.7;100.0;101190;;;;
2023/03/21 05:24:02;;;;;;;1.7;1.6;;;;;;;9.7;100.0;101190;;;;
2023/03/21 05:25:00;;;;;;;1.7;1.6;;;;;;;9.7;100.0;101190;;;;
2023/03/21 05:26:00;;;;;;;1.7;1.6;;;;;;;9.7;100.0;101190;;;;
2023/03/21 05:27:01;;;;;;;1.7;1.6;;;;;;;9.7;100.0;101190;;;;
2023/03/21 05:28:00;;;;;;;1.7;1.6;;;;;;;9.7;100.0;101190;;;;
2023/03/21 05:29:00;;;;;;;1.7;1.6;;;;;;;9.7;100.0;101190;;;;
2023/03/21 05:30:00;;;;;;;1.7;1.6;;;;;;;9.7;100.0;101190;;;;
2023/03/21 05:31:00;;;;;;;1.7;1.6;;;;;;;9.7;100.0;101190;;;;
2023/03/21 05:32:01;;;;;;;1.7;1.6;;;;;;;9.7;100.0;101190;;;;
2023/03/21 05:33:00;;;;;;;1.7;1.6;;;;;;;9.7;100.0;101190;;;;
2023/03/21 05:34:00;;;;;;;1.7;1.6;;;;;;;9.7;100.0;101190;;;;
2023/03/21 05:35:00;;;;;;;1.7;1.6;;;;;;;9.7;100.0;101190;;;;
2023/03/21 05:36:00;;;;;;;1.7;1.6;;;;;;;9.7;100.0;101190;;;;
2023/03/21 05:37:00;;;;;;;1.7;1.6;;;;;;;9.6;100.0;101190;;;;
2023/03/21 05:38:00;;;;;;;1.1;1.1;;;;;;;9.6;100.0;101190;;;;
2023/03/21 05:39:00;;;;;;;1.1;1.1;;;;;;;9.7;100.0;101190;;;;
2023/03/21 05:40:00;;;;;;;1.1;1.1;;;;;;;9.7;100.0;101190;;;;
2023/03/21 05:41:00;;;;;;;1.1;1.1;;;;;;;9.6;100.0;101190;;;;
2023/03/21 05:42:00;;;;;;;1.1;1.1;;;;;;;9.6;100.0;101190;;;;
2023/03/21 05:43:00;;;;;;;1.1;1.1;;;;;;;9.6;100.0;101190;;;;
2023/03/21 05:44:00;;;;;;;1.1;1.1;;;;;;;9.6;100.0;101190;;;;
2023/03/21 05:45:00;;;;;;;1.1;1.1;;;;;;;9.6;100.0;101180;;;;
2023/03/21 05:46:00;;;;;;;1.1;1.1;;;;;;;9.6;100.0;101180;;;;
2023/03/21 05:47:00;;;;;;;1.1;1.1;;;;;;;9.6;100.0;101190;;;;
2023/03/21 05:48:00;;;;;;;1.1;1.1;;;;;;;9.6;100.0;101190;;;;
2023/03/21 05:49:00;;;;;;;1.1;1.1;;;;;;;9.7;100.0;101190;;;;
2023/03/21 05:50:00;;;;;;;1.1;1.1;;;;;;;9.7;100.0;101190;;;;
2023/03/21 05:51:00;;;;;;;1.1;1.1;;;;;;;9.9;100.0;101180;;;;
2023/03/21 05:52:00;;;;;;;1.1;1.1;;;;;;;9.9;100.0;101180;;;;
2023/03/21 05:53:00;;;;;;;1.1;1.1;;;;;;;9.8;100.0;101180;;;;
2023/03/21 05:54:00;;;;;;;1.1;1.1;;;;;;;9.8;100.0;101180;;;;
2023/03/21 05:55:00;;;;;;;1.1;1.1;;;;;;;9.8;100.0;101180;;;;
2023/03/21 05:56:00;;;;;;;1.1;1.1;;;;;;;9.8;100.0;101180;;;;
2023/03/21 05:57:00;;;;;;;1.1;1.1;;;;;;;9.8;100.0;101190;;;;
2023/03/21 05:58:00;;;;;;;1.2;1.2;;;;;;;9.8;100.0;101190;;;;
2023/03/21 05:59:00;;;;;;;1.2;1.2;;;;;;;9.8;100.0;101180;;;;
2023/03/21 06:00:01;;;;;;;1.2;1.2;;;;;;;9.8;100.0;101180;;;;
2023/03/21 06:01:00;;;;;;;1.2;1.2;;;;;;;9.8;100.0;101180;;;;
2023/03/21 06:02:00;;;;;;;1.2;1.2;;;;;;;9.8;100.0;101180;;;;
2023/03/21 06:03:00;;;;;;;1.2;1.2;;;;;;;9.8;100.0;101180;;;;
2023/03/21 06:04:00;;;;;;;1.2;1.2;;;;;;;9.8;100.0;101180;;;;
2023/03/21 06:05:00;;;;;;;1.2;1.2;;;;;;;9.8;100.0;101180;;;;
2023/03/21 06:06:02;;;;;;;1.2;1.2;;;;;;;9.8;100.0;101180;;;;
2023/03/21 06:07:00;;;;;;;1.2;1.2;;;;;;;9.8;100.0;101180;;;;
2023/03/21 06:08:00;;;;;;;1.2;1.2;;;;;;;9.8;100.0;101180;;;;
2023/03/21 06:09:00;;;;;;;1.2;1.2;;;;;;;9.8;100.0;101180;;;;
2023/03/21 06:10:00;;;;;;;1.2;1.2;;;;;;;9.8;100.0;101180;;;;
2023/03/21 06:11:00;;;;;;;1.2;1.2;;;;;;;9.8;100.0;101170;;;;
2023/03/21 06:12:00;;;;;;;1.2;1.2;;;;;;;9.8;100.0;101170;;;;
2023/03/21 06:13:00;;;;;;;1.2;1.2;;;;;;;9.8;100.0;101180;;;;
2023/03/21 06:14:00;;;;;;;1.2;1.2;;;;;;;9.8;100.0;101180;;;;
2023/03/21 06:15:00;;;;;;;1.2;1.2;;;;;;;9.9;100.0;101180;;;;
2023/03/21 06:16:00;;;;;;;1.2;1.2;;;;;;;9.9;100.0;101180;;;;
2023/03/21 06:17:00;;;;;;;1.2;1.2;;;;;;;9.9;100.0;101170;;;;
2023/03/21 06:18:00;;;;;;;0.9;0.9;;;;;;;9.9;100.0;101170;;;;
2023/03/21 06:19:00;;;;;;;0.9;0.9;;;;;;;9.9;100.0;101170;;;;
2023/03/21 06:20:00;;;;;;;0.9;0.9;;;;;;;9.9;100.0;101170;;;;
2023/03/21 06:21:00;;;;;;;0.9;0.9;;;;;;;9.9;100.0;101170;;;;
2023/03/21 06:22:00;;;;;;;0.9;0.9;;;;;;;9.9;100.0;101170;;;;
2023/03/21 06:23:00;;;;;;;0.9;0.9;;;;;;;9.9;100.0;101180;;;;
2023/03/21 06:24:00;;;;;;;0.9;0.9;;;;;;;9.9;100.0;101180;;;;
2023/03/21 06:25:00;;;;;;;0.9;0.9;;;;;;;9.9;100.0;101180;;;;